BGGH

Details ICAO BGGH (GOH)
Name Nuuk - Godthab
Region Greenland
Timezone America/Godthab (UTC-2.0)
Plans Departing 298
Arriving 387
Stats Elevation 283 ft / 86 m (AMSL)
Location 64.190900° -51.678100°
Runways 1
Magnetic Variation 26.718° W
Sunrise 2018-10-15 10:17:51 UTC / 2018-10-15 08:17:51 Local
Sunset 2018-10-15 20:09:24 UTC / 2018-10-15 18:09:24 Local
Advertisement - Login to hide

Runways

ID Width Length Bearing (true/mag) Surface Threshold Overrun Markings Lighting
05 98 ft / 30 m 3,120 ft / 951 m 19.56° / 46.27° CONCRETE 0 ft / 0 m 0 ft / 0 m APP EDGE THRESHOLD
23 98 ft / 30 m 3,120 ft / 951 m 199.56° / 226.28° CONCRETE 0 ft / 0 m 0 ft / 0 m APP EDGE THRESHOLD MALSR

Map

Weather


0- 5 10 15 20 25 30 35+ Temperature / °C

Clouds and Precipitation
Forecast for 2018-10-16 00:00 UTC. Updated an hour ago

Ground ~20,000 ft ~40,000 ft Winds

METAR

BGGH 152250Z AUTO 15005KT 9999NDV -SN BKN035/// M03/M05 Q0996

TAF

Not found

Frequencies

Tower 119.10 MHz AFIS
Recorded 121.30 MHz Nuuk Info
Warning: Do not use this data for real-world aviation or navigation. No guarantee of current accuracy is given.